sensor_id;sensor_type;location;lat;lon;timestamp;P1;durP1;ratioP1;P2;durP2;ratioP2
44995;SDS011;30729;49.486;10.792;2023-05-10T00:01:36;15.60;;;10.18;;
44995;SDS011;30729;49.486;10.792;2023-05-10T00:04:01;12.13;;;6.95;;
44995;SDS011;30729;49.486;10.792;2023-05-10T00:06:27;10.97;;;6.90;;
44995;SDS011;30729;49.486;10.792;2023-05-10T00:11:43;8.05;;;5.07;;
44995;SDS011;30729;49.486;10.792;2023-05-10T00:14:09;8.45;;;5.45;;
44995;SDS011;30729;49.486;10.792;2023-05-10T00:16:34;8.70;;;5.28;;
44995;SDS011;30729;49.486;10.792;2023-05-10T00:18:59;8.80;;;5.43;;
44995;SDS011;30729;49.486;10.792;2023-05-10T00:21:24;9.70;;;5.70;;
44995;SDS011;30729;49.486;10.792;2023-05-10T00:23:49;9.82;;;6.55;;
44995;SDS011;30729;49.486;10.792;2023-05-10T00:26:15;10.00;;;6.77;;
44995;SDS011;30729;49.486;10.792;2023-05-10T00:28:41;10.23;;;6.80;;
44995;SDS011;30729;49.486;10.792;2023-05-10T00:31:06;9.60;;;6.18;;
44995;SDS011;30729;49.486;10.792;2023-05-10T00:33:31;11.25;;;7.15;;
44995;SDS011;30729;49.486;10.792;2023-05-10T00:35:56;16.60;;;11.97;;
44995;SDS011;30729;49.486;10.792;2023-05-10T00:38:22;11.30;;;7.63;;
44995;SDS011;30729;49.486;10.792;2023-05-10T00:40:47;10.75;;;7.53;;
44995;SDS011;30729;49.486;10.792;2023-05-10T00:43:12;10.68;;;6.55;;
44995;SDS011;30729;49.486;10.792;2023-05-10T00:45:37;11.05;;;6.60;;
44995;SDS011;30729;49.486;10.792;2023-05-10T00:48:02;10.43;;;6.47;;
44995;SDS011;30729;49.486;10.792;2023-05-10T00:50:28;11.15;;;7.25;;
44995;SDS011;30729;49.486;10.792;2023-05-10T00:52:54;8.20;;;5.70;;
44995;SDS011;30729;49.486;10.792;2023-05-10T00:55:19;13.27;;;6.82;;
44995;SDS011;30729;49.486;10.792;2023-05-10T00:57:44;8.93;;;5.82;;
44995;SDS011;30729;49.486;10.792;2023-05-10T01:00:10;9.20;;;5.70;;
44995;SDS011;30729;49.486;10.792;2023-05-10T01:02:36;9.88;;;6.50;;
44995;SDS011;30729;49.486;10.792;2023-05-10T01:05:02;10.27;;;6.00;;
44995;SDS011;30729;49.486;10.792;2023-05-10T01:07:28;11.95;;;6.30;;
44995;SDS011;30729;49.486;10.792;2023-05-10T01:09:53;10.02;;;6.25;;
44995;SDS011;30729;49.486;10.792;2023-05-10T01:12:18;8.88;;;6.20;;
44995;SDS011;30729;49.486;10.792;2023-05-10T01:14:44;11.55;;;6.72;;
44995;SDS011;30729;49.486;10.792;2023-05-10T01:17:09;10.43;;;6.03;;
44995;SDS011;30729;49.486;10.792;2023-05-10T01:19:35;10.43;;;6.55;;
44995;SDS011;30729;49.486;10.792;2023-05-10T01:24:52;10.85;;;6.40;;
44995;SDS011;30729;49.486;10.792;2023-05-10T01:27:36;10.40;;;6.40;;
44995;SDS011;30729;49.486;10.792;2023-05-10T01:30:15;11.68;;;6.20;;
44995;SDS011;30729;49.486;10.792;2023-05-10T01:32:44;11.02;;;6.75;;
44995;SDS011;30729;49.486;10.792;2023-05-10T01:37:50;10.15;;;6.45;;
44995;SDS011;30729;49.486;10.792;2023-05-10T01:42:47;10.43;;;6.57;;
44995;SDS011;30729;49.486;10.792;2023-05-10T01:45:18;12.20;;;5.85;;
44995;SDS011;30729;49.486;10.792;2023-05-10T01:47:46;11.35;;;6.28;;
44995;SDS011;30729;49.486;10.792;2023-05-10T01:50:18;9.15;;;6.20;;
44995;SDS011;30729;49.486;10.792;2023-05-10T01:52:45;8.98;;;5.35;;
44995;SDS011;30729;49.486;10.792;2023-05-10T01:55:13;10.23;;;5.63;;
44995;SDS011;30729;49.486;10.792;2023-05-10T01:57:39;8.52;;;5.53;;
44995;SDS011;30729;49.486;10.792;2023-05-10T02:00:05;9.38;;;4.97;;
44995;SDS011;30729;49.486;10.792;2023-05-10T02:02:33;9.05;;;5.15;;
44995;SDS011;30729;49.486;10.792;2023-05-10T02:04:59;7.82;;;5.00;;
44995;SDS011;30729;49.486;10.792;2023-05-10T02:07:25;11.07;;;5.43;;
44995;SDS011;30729;49.486;10.792;2023-05-10T02:09:51;9.77;;;4.53;;
44995;SDS011;30729;49.486;10.792;2023-05-10T02:12:17;7.60;;;4.50;;
44995;SDS011;30729;49.486;10.792;2023-05-10T02:14:42;7.40;;;4.38;;
44995;SDS011;30729;49.486;10.792;2023-05-10T02:17:08;7.70;;;3.95;;
44995;SDS011;30729;49.486;10.792;2023-05-10T02:19:34;8.52;;;4.30;;
44995;SDS011;30729;49.486;10.792;2023-05-10T02:22:00;7.25;;;4.20;;
44995;SDS011;30729;49.486;10.792;2023-05-10T02:24:26;9.00;;;4.15;;
44995;SDS011;30729;49.486;10.792;2023-05-10T02:26:53;6.53;;;3.35;;
44995;SDS011;30729;49.486;10.792;2023-05-10T02:29:19;5.00;;;2.85;;
44995;SDS011;30729;49.486;10.792;2023-05-10T02:31:44;5.63;;;2.30;;
44995;SDS011;30729;49.486;10.792;2023-05-10T02:34:10;5.03;;;2.05;;
44995;SDS011;30729;49.486;10.792;2023-05-10T02:36:36;3.70;;;1.73;;
44995;SDS011;30729;49.486;10.792;2023-05-10T02:39:03;3.97;;;1.42;;
44995;SDS011;30729;49.486;10.792;2023-05-10T02:41:29;4.40;;;1.38;;
44995;SDS011;30729;49.486;10.792;2023-05-10T02:43:56;4.43;;;2.00;;
44995;SDS011;30729;49.486;10.792;2023-05-10T02:46:22;2.17;;;1.20;;
44995;SDS011;30729;49.486;10.792;2023-05-10T02:48:47;2.30;;;1.20;;
44995;SDS011;30729;49.486;10.792;2023-05-10T02:51:12;3.90;;;1.30;;
44995;SDS011;30729;49.486;10.792;2023-05-10T02:53:40;1.35;;;0.80;;
44995;SDS011;30729;49.486;10.792;2023-05-10T02:56:09;4.38;;;1.10;;
44995;SDS011;30729;49.486;10.792;2023-05-10T02:58:37;1.77;;;0.90;;
44995;SDS011;30729;49.486;10.792;2023-05-10T03:01:02;2.20;;;1.17;;
44995;SDS011;30729;49.486;10.792;2023-05-10T03:03:27;1.35;;;0.88;;
44995;SDS011;30729;49.486;10.792;2023-05-10T03:05:52;1.90;;;0.80;;
44995;SDS011;30729;49.486;10.792;2023-05-10T03:08:20;0.93;;;0.80;;
44995;SDS011;30729;49.486;10.792;2023-05-10T03:10:49;0.97;;;0.70;;
44995;SDS011;30729;49.486;10.792;2023-05-10T03:13:29;2.53;;;0.75;;
44995;SDS011;30729;49.486;10.792;2023-05-10T03:16:04;0.70;;;0.60;;
44995;SDS011;30729;49.486;10.792;2023-05-10T03:18:54;0.77;;;0.68;;
44995;SDS011;30729;49.486;10.792;2023-05-10T03:21:19;1.13;;;0.52;;
44995;SDS011;30729;49.486;10.792;2023-05-10T03:23:48;1.30;;;0.70;;
44995;SDS011;30729;49.486;10.792;2023-05-10T03:26:17;0.77;;;0.60;;
44995;SDS011;30729;49.486;10.792;2023-05-10T03:28:42;3.33;;;0.68;;
44995;SDS011;30729;49.486;10.792;2023-05-10T03:31:08;1.85;;;0.88;;
44995;SDS011;30729;49.486;10.792;2023-05-10T03:33:33;1.00;;;0.85;;
44995;SDS011;30729;49.486;10.792;2023-05-10T03:35:59;1.27;;;0.75;;
44995;SDS011;30729;49.486;10.792;2023-05-10T03:38:24;0.88;;;0.70;;
44995;SDS011;30729;49.486;10.792;2023-05-10T03:40:49;2.40;;;1.00;;
44995;SDS011;30729;49.486;10.792;2023-05-10T03:43:14;4.57;;;0.82;;
44995;SDS011;30729;49.486;10.792;2023-05-10T03:45:40;1.65;;;0.70;;
44995;SDS011;30729;49.486;10.792;2023-05-10T03:48:05;0.98;;;0.68;;
44995;SDS011;30729;49.486;10.792;2023-05-10T03:50:30;3.25;;;0.98;;
44995;SDS011;30729;49.486;10.792;2023-05-10T03:52:55;1.33;;;0.90;;
44995;SDS011;30729;49.486;10.792;2023-05-10T03:55:20;2.37;;;0.70;;
44995;SDS011;30729;49.486;10.792;2023-05-10T03:57:47;2.53;;;0.90;;
44995;SDS011;30729;49.486;10.792;2023-05-10T04:00:14;2.63;;;0.95;;
44995;SDS011;30729;49.486;10.792;2023-05-10T04:02:39;1.02;;;0.80;;
44995;SDS011;30729;49.486;10.792;2023-05-10T04:05:04;1.35;;;0.80;;
44995;SDS011;30729;49.486;10.792;2023-05-10T04:07:30;1.38;;;0.90;;
44995;SDS011;30729;49.486;10.792;2023-05-10T04:09:55;1.67;;;0.80;;
44995;SDS011;30729;49.486;10.792;2023-05-10T04:12:20;1.80;;;0.80;;
44995;SDS011;30729;49.486;10.792;2023-05-10T04:14:45;1.20;;;0.80;;
44995;SDS011;30729;49.486;10.792;2023-05-10T04:17:10;2.50;;;1.00;;
44995;SDS011;30729;49.486;10.792;2023-05-10T04:19:35;3.03;;;0.70;;
44995;SDS011;30729;49.486;10.792;2023-05-10T04:22:02;1.30;;;0.93;;
44995;SDS011;30729;49.486;10.792;2023-05-10T04:24:27;1.50;;;1.10;;
44995;SDS011;30729;49.486;10.792;2023-05-10T04:26:53;2.13;;;0.88;;
44995;SDS011;30729;49.486;10.792;2023-05-10T04:29:18;1.65;;;1.00;;
44995;SDS011;30729;49.486;10.792;2023-05-10T04:31:43;1.63;;;1.00;;
44995;SDS011;30729;49.486;10.792;2023-05-10T04:34:09;1.10;;;0.90;;
44995;SDS011;30729;49.486;10.792;2023-05-10T04:36:34;1.40;;;0.98;;
44995;SDS011;30729;49.486;10.792;2023-05-10T04:39:00;2.08;;;1.02;;
44995;SDS011;30729;49.486;10.792;2023-05-10T04:41:27;2.10;;;1.00;;
44995;SDS011;30729;49.486;10.792;2023-05-10T04:43:52;1.10;;;1.00;;
44995;SDS011;30729;49.486;10.792;2023-05-10T04:46:17;5.45;;;2.58;;
44995;SDS011;30729;49.486;10.792;2023-05-10T04:48:43;2.05;;;1.00;;
44995;SDS011;30729;49.486;10.792;2023-05-10T04:51:08;1.53;;;1.00;;
44995;SDS011;30729;49.486;10.792;2023-05-10T04:53:33;1.58;;;1.10;;
44995;SDS011;30729;49.486;10.792;2023-05-10T04:55:58;3.53;;;1.05;;
44995;SDS011;30729;49.486;10.792;2023-05-10T04:58:23;1.58;;;1.08;;
44995;SDS011;30729;49.486;10.792;2023-05-10T05:00:48;1.65;;;1.08;;
44995;SDS011;30729;49.486;10.792;2023-05-10T05:03:13;1.10;;;1.00;;
44995;SDS011;30729;49.486;10.792;2023-05-10T05:05:39;1.90;;;1.10;;
44995;SDS011;30729;49.486;10.792;2023-05-10T05:08:04;1.83;;;1.17;;
44995;SDS011;30729;49.486;10.792;2023-05-10T05:10:29;4.15;;;1.42;;
44995;SDS011;30729;49.486;10.792;2023-05-10T05:12:54;2.30;;;1.30;;
44995;SDS011;30729;49.486;10.792;2023-05-10T05:15:20;2.40;;;1.23;;
44995;SDS011;30729;49.486;10.792;2023-05-10T05:17:45;3.22;;;1.60;;
44995;SDS011;30729;49.486;10.792;2023-05-10T05:20:10;3.23;;;1.40;;
44995;SDS011;30729;49.486;10.792;2023-05-10T05:22:36;2.95;;;1.42;;
44995;SDS011;30729;49.486;10.792;2023-05-10T05:25:01;2.10;;;1.42;;
44995;SDS011;30729;49.486;10.792;2023-05-10T05:27:28;3.35;;;2.38;;
44995;SDS011;30729;49.486;10.792;2023-05-10T05:29:53;2.72;;;1.52;;
44995;SDS011;30729;49.486;10.792;2023-05-10T05:32:18;3.08;;;1.48;;
44995;SDS011;30729;49.486;10.792;2023-05-10T05:34:44;5.05;;;1.92;;
44995;SDS011;30729;49.486;10.792;2023-05-10T05:37:12;2.55;;;1.48;;
44995;SDS011;30729;49.486;10.792;2023-05-10T05:39:37;3.15;;;1.70;;
44995;SDS011;30729;49.486;10.792;2023-05-10T05:42:02;2.65;;;1.40;;
44995;SDS011;30729;49.486;10.792;2023-05-10T05:44:28;2.83;;;1.60;;
44995;SDS011;30729;49.486;10.792;2023-05-10T05:46:53;2.33;;;1.35;;
44995;SDS011;30729;49.486;10.792;2023-05-10T05:49:18;2.97;;;1.52;;
44995;SDS011;30729;49.486;10.792;2023-05-10T05:51:43;4.72;;;1.80;;
44995;SDS011;30729;49.486;10.792;2023-05-10T05:54:09;3.00;;;1.50;;
44995;SDS011;30729;49.486;10.792;2023-05-10T05:56:34;3.13;;;1.70;;
44995;SDS011;30729;49.486;10.792;2023-05-10T05:58:59;3.22;;;1.63;;
44995;SDS011;30729;49.486;10.792;2023-05-10T06:01:24;4.03;;;1.80;;
44995;SDS011;30729;49.486;10.792;2023-05-10T06:03:50;5.20;;;1.98;;
44995;SDS011;30729;49.486;10.792;2023-05-10T06:06:15;3.15;;;1.83;;
44995;SDS011;30729;49.486;10.792;2023-05-10T06:11:31;2.38;;;1.70;;
44995;SDS011;30729;49.486;10.792;2023-05-10T06:13:57;2.50;;;1.45;;
44995;SDS011;30729;49.486;10.792;2023-05-10T06:16:22;2.40;;;1.63;;
44995;SDS011;30729;49.486;10.792;2023-05-10T06:18:47;1.90;;;1.37;;
44995;SDS011;30729;49.486;10.792;2023-05-10T06:21:12;4.00;;;1.95;;
44995;SDS011;30729;49.486;10.792;2023-05-10T06:23:37;2.85;;;1.50;;
44995;SDS011;30729;49.486;10.792;2023-05-10T06:26:03;3.45;;;1.45;;
44995;SDS011;30729;49.486;10.792;2023-05-10T06:28:28;2.15;;;1.50;;
44995;SDS011;30729;49.486;10.792;2023-05-10T06:30:53;5.43;;;1.70;;
44995;SDS011;30729;49.486;10.792;2023-05-10T06:33:18;2.40;;;1.42;;
44995;SDS011;30729;49.486;10.792;2023-05-10T06:35:43;3.33;;;1.30;;
44995;SDS011;30729;49.486;10.792;2023-05-10T06:38:08;3.37;;;1.70;;
44995;SDS011;30729;49.486;10.792;2023-05-10T06:40:33;2.33;;;1.48;;
44995;SDS011;30729;49.486;10.792;2023-05-10T06:42:59;5.22;;;1.60;;
44995;SDS011;30729;49.486;10.792;2023-05-10T06:45:24;2.97;;;1.75;;
44995;SDS011;30729;49.486;10.792;2023-05-10T06:47:49;2.90;;;1.90;;
44995;SDS011;30729;49.486;10.792;2023-05-10T06:50:14;4.65;;;1.88;;
44995;SDS011;30729;49.486;10.792;2023-05-10T06:52:40;3.72;;;1.88;;
44995;SDS011;30729;49.486;10.792;2023-05-10T06:55:05;3.03;;;1.60;;
44995;SDS011;30729;49.486;10.792;2023-05-10T06:57:30;4.13;;;1.85;;
44995;SDS011;30729;49.486;10.792;2023-05-10T06:59:56;4.22;;;1.67;;
44995;SDS011;30729;49.486;10.792;2023-05-10T07:02:22;4.57;;;1.80;;
44995;SDS011;30729;49.486;10.792;2023-05-10T07:04:47;2.85;;;1.80;;
44995;SDS011;30729;49.486;10.792;2023-05-10T07:07:13;4.95;;;1.50;;
44995;SDS011;30729;49.486;10.792;2023-05-10T07:09:38;4.35;;;1.80;;
44995;SDS011;30729;49.486;10.792;2023-05-10T07:12:03;3.33;;;1.92;;
44995;SDS011;30729;49.486;10.792;2023-05-10T07:14:29;3.95;;;2.08;;
44995;SDS011;30729;49.486;10.792;2023-05-10T07:16:54;4.45;;;1.88;;
44995;SDS011;30729;49.486;10.792;2023-05-10T07:19:19;2.97;;;1.90;;
44995;SDS011;30729;49.486;10.792;2023-05-10T07:21:44;4.07;;;1.70;;
44995;SDS011;30729;49.486;10.792;2023-05-10T07:24:09;6.47;;;1.73;;
44995;SDS011;30729;49.486;10.792;2023-05-10T07:26:35;4.13;;;2.03;;
44995;SDS011;30729;49.486;10.792;2023-05-10T07:29:00;3.03;;;1.92;;
44995;SDS011;30729;49.486;10.792;2023-05-10T07:31:26;3.35;;;2.00;;
44995;SDS011;30729;49.486;10.792;2023-05-10T07:33:51;6.88;;;2.00;;
44995;SDS011;30729;49.486;10.792;2023-05-10T07:36:16;3.92;;;1.83;;
44995;SDS011;30729;49.486;10.792;2023-05-10T07:38:41;4.17;;;1.97;;
44995;SDS011;30729;49.486;10.792;2023-05-10T07:41:06;5.95;;;2.30;;
44995;SDS011;30729;49.486;10.792;2023-05-10T07:43:31;3.67;;;2.00;;
44995;SDS011;30729;49.486;10.792;2023-05-10T07:45:56;7.57;;;3.50;;
44995;SDS011;30729;49.486;10.792;2023-05-10T07:48:22;5.60;;;2.58;;
44995;SDS011;30729;49.486;10.792;2023-05-10T07:50:47;4.68;;;2.47;;
44995;SDS011;30729;49.486;10.792;2023-05-10T07:53:13;4.47;;;2.30;;
44995;SDS011;30729;49.486;10.792;2023-05-10T07:55:38;4.83;;;2.67;;
44995;SDS011;30729;49.486;10.792;2023-05-10T07:58:03;4.22;;;2.65;;
44995;SDS011;30729;49.486;10.792;2023-05-10T08:00:28;5.28;;;2.33;;
44995;SDS011;30729;49.486;10.792;2023-05-10T08:02:54;4.53;;;2.30;;
44995;SDS011;30729;49.486;10.792;2023-05-10T08:05:19;5.50;;;2.85;;
44995;SDS011;30729;49.486;10.792;2023-05-10T08:07:44;4.32;;;2.40;;
44995;SDS011;30729;49.486;10.792;2023-05-10T08:10:09;5.85;;;2.08;;
44995;SDS011;30729;49.486;10.792;2023-05-10T08:12:35;5.18;;;2.50;;
44995;SDS011;30729;49.486;10.792;2023-05-10T08:15:01;3.55;;;2.03;;
44995;SDS011;30729;49.486;10.792;2023-05-10T08:17:26;4.27;;;2.00;;
44995;SDS011;30729;49.486;10.792;2023-05-10T08:19:51;4.18;;;2.40;;
44995;SDS011;30729;49.486;10.792;2023-05-10T08:22:16;5.95;;;2.35;;
44995;SDS011;30729;49.486;10.792;2023-05-10T08:24:41;5.30;;;2.45;;
44995;SDS011;30729;49.486;10.792;2023-05-10T08:27:07;3.37;;;2.17;;
44995;SDS011;30729;49.486;10.792;2023-05-10T08:29:32;5.82;;;2.58;;
44995;SDS011;30729;49.486;10.792;2023-05-10T08:31:57;4.43;;;2.40;;
44995;SDS011;30729;49.486;10.792;2023-05-10T08:34:23;5.82;;;2.90;;
44995;SDS011;30729;49.486;10.792;2023-05-10T08:36:48;5.63;;;3.28;;
44995;SDS011;30729;49.486;10.792;2023-05-10T08:39:13;8.48;;;3.30;;
44995;SDS011;30729;49.486;10.792;2023-05-10T08:41:39;5.80;;;2.83;;
44995;SDS011;30729;49.486;10.792;2023-05-10T08:44:05;7.80;;;3.30;;
44995;SDS011;30729;49.486;10.792;2023-05-10T08:46:31;4.78;;;2.22;;
44995;SDS011;30729;49.486;10.792;2023-05-10T08:48:58;4.70;;;2.40;;
44995;SDS011;30729;49.486;10.792;2023-05-10T08:51:24;5.38;;;2.88;;
44995;SDS011;30729;49.486;10.792;2023-05-10T08:53:52;5.28;;;2.85;;
44995;SDS011;30729;49.486;10.792;2023-05-10T08:56:18;6.45;;;2.50;;
44995;SDS011;30729;49.486;10.792;2023-05-10T08:58:44;5.22;;;2.28;;
44995;SDS011;30729;49.486;10.792;2023-05-10T09:01:09;3.80;;;2.20;;
44995;SDS011;30729;49.486;10.792;2023-05-10T09:03:37;4.00;;;2.00;;
44995;SDS011;30729;49.486;10.792;2023-05-10T09:06:03;3.13;;;1.40;;
44995;SDS011;30729;49.486;10.792;2023-05-10T09:08:28;7.93;;;2.65;;
44995;SDS011;30729;49.486;10.792;2023-05-10T09:10:54;5.93;;;2.33;;
44995;SDS011;30729;49.486;10.792;2023-05-10T09:13:20;4.93;;;2.10;;
44995;SDS011;30729;49.486;10.792;2023-05-10T09:15:46;8.60;;;2.45;;
44995;SDS011;30729;49.486;10.792;2023-05-10T09:18:12;6.07;;;2.10;;
44995;SDS011;30729;49.486;10.792;2023-05-10T09:20:37;4.50;;;1.88;;
44995;SDS011;30729;49.486;10.792;2023-05-10T09:23:02;11.80;;;3.47;;
44995;SDS011;30729;49.486;10.792;2023-05-10T09:25:27;5.65;;;2.10;;
44995;SDS011;30729;49.486;10.792;2023-05-10T09:27:52;3.42;;;1.52;;
44995;SDS011;30729;49.486;10.792;2023-05-10T09:30:23;3.22;;;1.80;;
44995;SDS011;30729;49.486;10.792;2023-05-10T09:32:48;4.13;;;1.85;;
44995;SDS011;30729;49.486;10.792;2023-05-10T09:35:16;3.97;;;1.63;;
44995;SDS011;30729;49.486;10.792;2023-05-10T09:37:46;3.85;;;1.40;;
44995;SDS011;30729;49.486;10.792;2023-05-10T09:40:13;4.10;;;1.55;;
44995;SDS011;30729;49.486;10.792;2023-05-10T09:42:39;3.30;;;1.40;;
44995;SDS011;30729;49.486;10.792;2023-05-10T09:45:05;4.07;;;2.10;;
44995;SDS011;30729;49.486;10.792;2023-05-10T09:47:32;5.40;;;1.40;;
44995;SDS011;30729;49.486;10.792;2023-05-10T09:49:57;4.43;;;1.58;;
44995;SDS011;30729;49.486;10.792;2023-05-10T09:52:27;7.93;;;1.52;;
44995;SDS011;30729;49.486;10.792;2023-05-10T09:54:53;2.10;;;1.02;;
44995;SDS011;30729;49.486;10.792;2023-05-10T09:57:22;3.25;;;1.30;;
44995;SDS011;30729;49.486;10.792;2023-05-10T09:59:47;4.47;;;1.55;;
44995;SDS011;30729;49.486;10.792;2023-05-10T10:02:13;4.28;;;1.38;;
44995;SDS011;30729;49.486;10.792;2023-05-10T10:04:41;2.72;;;1.27;;
44995;SDS011;30729;49.486;10.792;2023-05-10T10:07:06;2.17;;;1.33;;
44995;SDS011;30729;49.486;10.792;2023-05-10T10:09:32;3.20;;;1.70;;
44995;SDS011;30729;49.486;10.792;2023-05-10T10:11:57;3.67;;;1.92;;
44995;SDS011;30729;49.486;10.792;2023-05-10T10:14:23;3.45;;;1.83;;
44995;SDS011;30729;49.486;10.792;2023-05-10T10:16:49;3.75;;;1.70;;
44995;SDS011;30729;49.486;10.792;2023-05-10T10:19:14;3.25;;;1.90;;
44995;SDS011;30729;49.486;10.792;2023-05-10T10:21:39;4.18;;;1.92;;
44995;SDS011;30729;49.486;10.792;2023-05-10T10:24:05;4.53;;;1.83;;
44995;SDS011;30729;49.486;10.792;2023-05-10T10:26:30;3.22;;;1.88;;
44995;SDS011;30729;49.486;10.792;2023-05-10T10:29:13;3.58;;;1.83;;
44995;SDS011;30729;49.486;10.792;2023-05-10T10:31:47;8.20;;;2.30;;
44995;SDS011;30729;49.486;10.792;2023-05-10T10:34:19;3.65;;;2.00;;
44995;SDS011;30729;49.486;10.792;2023-05-10T10:36:46;3.25;;;1.90;;
44995;SDS011;30729;49.486;10.792;2023-05-10T10:39:12;3.67;;;1.73;;
44995;SDS011;30729;49.486;10.792;2023-05-10T10:41:48;4.28;;;1.73;;
44995;SDS011;30729;49.486;10.792;2023-05-10T10:47:05;2.50;;;1.40;;
44995;SDS011;30729;49.486;10.792;2023-05-10T10:49:33;4.03;;;1.73;;
44995;SDS011;30729;49.486;10.792;2023-05-10T10:57:22;3.15;;;1.55;;
44995;SDS011;30729;49.486;10.792;2023-05-10T10:59:48;3.10;;;1.50;;
44995;SDS011;30729;49.486;10.792;2023-05-10T11:02:31;3.53;;;1.85;;
44995;SDS011;30729;49.486;10.792;2023-05-10T11:04:57;2.95;;;1.70;;
44995;SDS011;30729;49.486;10.792;2023-05-10T11:07:22;4.80;;;2.00;;
44995;SDS011;30729;49.486;10.792;2023-05-10T11:09:48;2.25;;;1.42;;
44995;SDS011;30729;49.486;10.792;2023-05-10T11:12:13;4.68;;;1.75;;
44995;SDS011;30729;49.486;10.792;2023-05-10T11:14:38;3.55;;;1.80;;
44995;SDS011;30729;49.486;10.792;2023-05-10T11:17:38;3.75;;;2.00;;
44995;SDS011;30729;49.486;10.792;2023-05-10T11:20:09;6.07;;;1.90;;
44995;SDS011;30729;49.486;10.792;2023-05-10T11:25:29;5.75;;;1.70;;
44995;SDS011;30729;49.486;10.792;2023-05-10T11:27:54;4.55;;;2.13;;
44995;SDS011;30729;49.486;10.792;2023-05-10T11:30:19;4.25;;;2.00;;
44995;SDS011;30729;49.486;10.792;2023-05-10T11:32:45;2.65;;;1.75;;
44995;SDS011;30729;49.486;10.792;2023-05-10T11:35:11;3.53;;;1.80;;
44995;SDS011;30729;49.486;10.792;2023-05-10T11:37:36;3.40;;;1.95;;
44995;SDS011;30729;49.486;10.792;2023-05-10T11:40:03;4.65;;;1.80;;
44995;SDS011;30729;49.486;10.792;2023-05-10T11:42:28;3.60;;;1.83;;
44995;SDS011;30729;49.486;10.792;2023-05-10T11:44:54;5.05;;;1.42;;
44995;SDS011;30729;49.486;10.792;2023-05-10T11:47:19;2.63;;;1.30;;
44995;SDS011;30729;49.486;10.792;2023-05-10T11:49:44;3.38;;;1.50;;
44995;SDS011;30729;49.486;10.792;2023-05-10T11:52:10;2.85;;;1.30;;
44995;SDS011;30729;49.486;10.792;2023-05-10T11:54:44;11.43;;;2.00;;
44995;SDS011;30729;49.486;10.792;2023-05-10T12:00:01;1.83;;;1.30;;
44995;SDS011;30729;49.486;10.792;2023-05-10T12:02:28;2.17;;;1.23;;
44995;SDS011;30729;49.486;10.792;2023-05-10T12:04:54;2.00;;;1.23;;
44995;SDS011;30729;49.486;10.792;2023-05-10T12:07:20;4.78;;;1.65;;
44995;SDS011;30729;49.486;10.792;2023-05-10T12:10:01;2.80;;;1.53;;
44995;SDS011;30729;49.486;10.792;2023-05-10T12:12:27;4.82;;;1.60;;
44995;SDS011;30729;49.486;10.792;2023-05-10T12:14:52;3.63;;;1.67;;
44995;SDS011;30729;49.486;10.792;2023-05-10T12:17:17;2.60;;;1.70;;
44995;SDS011;30729;49.486;10.792;2023-05-10T12:19:42;3.45;;;1.65;;
44995;SDS011;30729;49.486;10.792;2023-05-10T12:22:08;4.75;;;1.42;;
44995;SDS011;30729;49.486;10.792;2023-05-10T12:24:34;2.90;;;1.58;;
44995;SDS011;30729;49.486;10.792;2023-05-10T12:27:00;3.75;;;1.73;;
44995;SDS011;30729;49.486;10.792;2023-05-10T12:29:29;2.75;;;1.45;;
44995;SDS011;30729;49.486;10.792;2023-05-10T12:31:57;2.67;;;1.10;;
44995;SDS011;30729;49.486;10.792;2023-05-10T12:34:41;2.15;;;1.20;;
44995;SDS011;30729;49.486;10.792;2023-05-10T12:37:06;1.75;;;0.93;;
44995;SDS011;30729;49.486;10.792;2023-05-10T12:39:38;5.38;;;1.30;;
44995;SDS011;30729;49.486;10.792;2023-05-10T12:42:03;2.55;;;1.45;;
44995;SDS011;30729;49.486;10.792;2023-05-10T12:44:28;3.05;;;1.13;;
44995;SDS011;30729;49.486;10.792;2023-05-10T12:46:53;2.20;;;1.52;;
44995;SDS011;30729;49.486;10.792;2023-05-10T12:49:19;2.08;;;1.20;;
44995;SDS011;30729;49.486;10.792;2023-05-10T12:51:44;1.60;;;0.82;;
44995;SDS011;30729;49.486;10.792;2023-05-10T12:54:09;1.70;;;0.73;;
44995;SDS011;30729;49.486;10.792;2023-05-10T12:56:34;1.47;;;0.90;;
44995;SDS011;30729;49.486;10.792;2023-05-10T12:59:00;3.65;;;1.02;;
44995;SDS011;30729;49.486;10.792;2023-05-10T13:01:25;3.07;;;0.80;;
44995;SDS011;30729;49.486;10.792;2023-05-10T13:03:50;2.47;;;1.43;;
44995;SDS011;30729;49.486;10.792;2023-05-10T13:06:15;1.80;;;0.97;;
44995;SDS011;30729;49.486;10.792;2023-05-10T13:08:40;2.53;;;0.88;;
44995;SDS011;30729;49.486;10.792;2023-05-10T13:11:05;3.70;;;1.10;;
44995;SDS011;30729;49.486;10.792;2023-05-10T13:13:31;4.40;;;0.90;;
44995;SDS011;30729;49.486;10.792;2023-05-10T13:15:56;1.60;;;0.90;;
44995;SDS011;30729;49.486;10.792;2023-05-10T13:18:21;1.42;;;0.90;;
44995;SDS011;30729;49.486;10.792;2023-05-10T13:20:46;4.53;;;1.00;;
44995;SDS011;30729;49.486;10.792;2023-05-10T13:23:11;4.13;;;1.20;;
44995;SDS011;30729;49.486;10.792;2023-05-10T13:25:36;2.05;;;1.00;;
44995;SDS011;30729;49.486;10.792;2023-05-10T13:28:02;3.30;;;1.33;;
44995;SDS011;30729;49.486;10.792;2023-05-10T13:30:27;4.43;;;1.10;;
44995;SDS011;30729;49.486;10.792;2023-05-10T13:32:53;29.13;;;16.08;;
44995;SDS011;30729;49.486;10.792;2023-05-10T13:35:18;3.80;;;2.22;;
44995;SDS011;30729;49.486;10.792;2023-05-10T13:37:43;1.40;;;1.03;;
44995;SDS011;30729;49.486;10.792;2023-05-10T13:40:09;2.70;;;0.90;;
44995;SDS011;30729;49.486;10.792;2023-05-10T13:42:35;3.10;;;1.15;;
44995;SDS011;30729;49.486;10.792;2023-05-10T13:45:00;1.15;;;0.98;;
44995;SDS011;30729;49.486;10.792;2023-05-10T13:47:26;2.45;;;1.17;;
44995;SDS011;30729;49.486;10.792;2023-05-10T13:49:52;1.30;;;1.10;;
44995;SDS011;30729;49.486;10.792;2023-05-10T13:52:17;2.38;;;1.35;;
44995;SDS011;30729;49.486;10.792;2023-05-10T13:54:43;2.88;;;1.15;;
44995;SDS011;30729;49.486;10.792;2023-05-10T13:57:08;4.18;;;1.30;;
44995;SDS011;30729;49.486;10.792;2023-05-10T13:59:33;3.75;;;1.20;;
44995;SDS011;30729;49.486;10.792;2023-05-10T14:01:59;2.40;;;1.45;;
44995;SDS011;30729;49.486;10.792;2023-05-10T14:04:24;3.22;;;1.58;;
44995;SDS011;30729;49.486;10.792;2023-05-10T14:06:49;2.60;;;1.33;;
44995;SDS011;30729;49.486;10.792;2023-05-10T14:09:15;1.60;;;1.10;;
44995;SDS011;30729;49.486;10.792;2023-05-10T14:11:40;3.53;;;1.42;;
44995;SDS011;30729;49.486;10.792;2023-05-10T14:14:08;5.28;;;1.52;;
44995;SDS011;30729;49.486;10.792;2023-05-10T14:16:33;2.70;;;1.35;;
44995;SDS011;30729;49.486;10.792;2023-05-10T14:18:58;5.50;;;1.50;;
44995;SDS011;30729;49.486;10.792;2023-05-10T14:21:23;3.17;;;1.63;;
44995;SDS011;30729;49.486;10.792;2023-05-10T14:23:49;1.63;;;1.15;;
44995;SDS011;30729;49.486;10.792;2023-05-10T14:26:14;2.92;;;1.30;;
44995;SDS011;30729;49.486;10.792;2023-05-10T14:28:39;8.02;;;4.90;;
44995;SDS011;30729;49.486;10.792;2023-05-10T14:31:04;3.55;;;1.50;;
44995;SDS011;30729;49.486;10.792;2023-05-10T14:33:30;4.25;;;1.40;;
44995;SDS011;30729;49.486;10.792;2023-05-10T14:35:55;3.83;;;1.60;;
44995;SDS011;30729;49.486;10.792;2023-05-10T14:38:22;4.25;;;1.45;;
44995;SDS011;30729;49.486;10.792;2023-05-10T14:40:47;4.72;;;1.10;;
44995;SDS011;30729;49.486;10.792;2023-05-10T14:43:12;2.20;;;1.08;;
44995;SDS011;30729;49.486;10.792;2023-05-10T14:45:37;0.98;;;0.80;;
44995;SDS011;30729;49.486;10.792;2023-05-10T14:48:02;1.10;;;0.90;;
44995;SDS011;30729;49.486;10.792;2023-05-10T14:50:29;1.27;;;0.70;;
44995;SDS011;30729;49.486;10.792;2023-05-10T14:52:55;1.00;;;0.60;;
44995;SDS011;30729;49.486;10.792;2023-05-10T14:55:20;0.50;;;0.50;;